createdAt,value
2024-04-24T00:01:24.637Z,52.29
2024-04-24T00:03:55.063Z,52.28
2024-04-24T00:06:25.699Z,52.68
2024-04-24T00:08:58.798Z,52.41
2024-04-24T00:11:29.321Z,52.83
2024-04-24T00:13:59.738Z,53.04
2024-04-24T00:16:30.027Z,53.02
2024-04-24T00:19:00.626Z,53.57
2024-04-24T00:21:30.940Z,53.09
2024-04-24T00:24:04.147Z,53.14
2024-04-24T00:26:34.970Z,52.88
2024-04-24T00:29:05.560Z,53.04
2024-04-24T00:31:36.020Z,53.31
2024-04-24T00:34:07.703Z,53.03
2024-04-24T00:36:38.101Z,52.73
2024-04-24T00:39:11.160Z,52.93
2024-04-24T00:41:41.468Z,53.22
2024-04-24T00:44:12.010Z,53.77
2024-04-24T00:46:42.528Z,55.04
2024-04-24T00:49:12.869Z,54.89
2024-04-24T00:51:43.318Z,55.09
2024-04-24T00:54:16.469Z,54.71
2024-04-24T00:56:46.844Z,54.42
2024-04-24T00:59:17.278Z,54.44
2024-04-24T01:01:47.880Z,55.03
2024-04-24T01:04:18.298Z,54.31
2024-04-24T01:06:51.629Z,54.34
2024-04-24T01:09:24.897Z,54.50
2024-04-24T01:11:55.607Z,54.24
2024-04-24T01:14:26.242Z,53.96
2024-04-24T01:16:56.866Z,53.75
2024-04-24T01:19:37.435Z,53.98
2024-04-24T01:22:12.915Z,53.74
2024-04-24T01:24:46.460Z,53.99
2024-04-24T01:27:19.571Z,54.22
2024-04-24T01:29:49.909Z,54.51
2024-04-24T01:32:20.343Z,54.17
2024-04-24T01:34:50.822Z,54.21
2024-04-24T01:37:18.593Z,54.20
2024-04-24T01:39:48.943Z,54.56
2024-04-24T01:42:22.338Z,54.67
2024-04-24T01:44:52.643Z,54.80
2024-04-24T01:47:23.157Z,55.15
2024-04-24T01:49:50.940Z,54.73
2024-04-24T01:52:21.278Z,54.60
2024-04-24T01:54:51.632Z,55.22
2024-04-24T01:57:24.966Z,54.83
2024-04-24T01:59:55.399Z,54.91
2024-04-24T02:02:25.764Z,55.09
2024-04-24T02:04:56.171Z,54.93
2024-04-24T02:07:26.524Z,55.22
2024-04-24T02:09:56.853Z,54.89
2024-04-24T02:12:29.891Z,54.69
2024-04-24T02:15:00.354Z,55.77
2024-04-24T02:17:31.682Z,56.10
2024-04-24T02:20:02.261Z,55.81
2024-04-24T02:22:35.166Z,55.57
2024-04-24T02:25:23.170Z,55.46
2024-04-24T02:27:56.161Z,55.21
2024-04-24T02:30:26.541Z,55.37
2024-04-24T02:32:56.987Z,55.69
2024-04-24T02:35:27.966Z,55.42
2024-04-24T02:37:58.379Z,55.47
2024-04-24T02:40:28.809Z,55.21
2024-04-24T02:43:01.850Z,55.43
2024-04-24T02:45:32.151Z,55.50
2024-04-24T02:48:02.652Z,55.32
2024-04-24T02:50:33.170Z,55.35
2024-04-24T02:53:04.031Z,55.28
2024-04-24T02:55:34.515Z,55.07
2024-04-24T02:58:08.022Z,55.20
2024-04-24T03:00:38.426Z,55.02
2024-04-24T03:03:09.306Z,55.31
2024-04-24T03:05:39.766Z,55.00
2024-04-24T03:08:10.611Z,55.18
2024-04-24T03:10:41.063Z,54.98
2024-04-24T03:13:14.095Z,54.86
2024-04-24T03:15:44.551Z,55.03
2024-04-24T03:18:14.993Z,54.72
2024-04-24T03:20:45.753Z,55.20
2024-04-24T03:23:16.423Z,55.06
2024-04-24T03:25:47.482Z,54.95
2024-04-24T03:28:20.590Z,55.53
2024-04-24T03:30:50.903Z,55.17
2024-04-24T03:33:21.346Z,54.86
2024-04-24T03:35:51.758Z,55.78
2024-04-24T03:38:22.186Z,55.59
2024-04-24T03:40:52.590Z,55.49
2024-04-24T03:43:25.669Z,55.37
2024-04-24T03:45:56.130Z,55.38
2024-04-24T03:48:23.883Z,55.23
2024-04-24T03:50:54.250Z,55.29
2024-04-24T03:53:24.646Z,55.15
2024-04-24T03:55:55.249Z,55.32
2024-04-24T03:58:28.303Z,55.15
2024-04-24T04:00:58.707Z,55.55
2024-04-24T04:03:29.122Z,55.16
2024-04-24T04:05:59.473Z,55.38
2024-04-24T04:08:31.157Z,55.03
2024-04-24T04:11:01.712Z,54.90
2024-04-24T04:13:34.750Z,55.04
2024-04-24T04:16:05.100Z,55.44
2024-04-24T04:18:35.936Z,55.74
2024-04-24T04:21:06.401Z,55.44
2024-04-24T04:23:36.696Z,55.65
2024-04-24T04:26:07.442Z,55.40
2024-04-24T04:28:40.494Z,55.72
2024-04-24T04:31:10.915Z,56.19
2024-04-24T04:33:41.310Z,56.10
2024-04-24T04:36:12.149Z,56.14
2024-04-24T04:38:42.523Z,56.04
2024-04-24T04:41:12.910Z,56.05
2024-04-24T04:43:46.041Z,56.32
2024-04-24T04:46:16.368Z,55.99
2024-04-24T04:48:47.311Z,55.89
2024-04-24T04:51:18.369Z,56.31
2024-04-24T04:53:48.772Z,55.78
2024-04-24T04:56:19.175Z,56.03
2024-04-24T04:58:52.234Z,55.86
2024-04-24T05:01:22.588Z,55.84
2024-04-24T05:03:53.045Z,55.95
2024-04-24T05:06:23.358Z,55.60
2024-04-24T05:08:54.494Z,55.80
2024-04-24T05:11:25.118Z,55.74
2024-04-24T05:13:58.286Z,55.99
2024-04-24T05:16:28.625Z,55.78
2024-04-24T05:18:59.036Z,55.71
2024-04-24T05:21:29.336Z,54.81
2024-04-24T05:23:59.979Z,54.35
2024-04-24T05:26:46.498Z,54.13
2024-04-24T05:29:19.581Z,53.88
2024-04-24T05:31:51.043Z,53.45
2024-04-24T05:34:21.442Z,53.45
2024-04-24T05:36:51.810Z,53.63
2024-04-24T05:39:22.244Z,53.50
2024-04-24T05:41:52.580Z,54.53
2024-04-24T05:44:28.886Z,55.00
2024-04-24T05:47:00.046Z,55.22
2024-04-24T05:49:30.396Z,55.21
2024-04-24T05:52:01.211Z,55.24
2024-04-24T05:54:32.279Z,55.15
2024-04-24T05:57:02.640Z,55.34
2024-04-24T05:59:36.394Z,55.36
2024-04-24T06:02:06.868Z,55.19
2024-04-24T06:04:37.751Z,55.33
2024-04-24T06:07:08.278Z,55.00
2024-04-24T06:09:38.637Z,54.87
2024-04-24T06:12:09.225Z,54.99
2024-04-24T06:14:42.234Z,54.94
2024-04-24T06:17:13.067Z,54.96
2024-04-24T06:19:43.832Z,54.83
2024-04-24T06:22:14.193Z,54.73
2024-04-24T06:24:44.605Z,55.17
2024-04-24T06:27:15.066Z,55.06
2024-04-24T06:29:48.168Z,54.67
2024-04-24T06:32:18.609Z,55.09
2024-04-24T06:34:49.062Z,54.47
2024-04-24T06:37:19.421Z,54.11
2024-04-24T06:39:49.953Z,53.49
2024-04-24T06:42:20.303Z,53.63
2024-04-24T06:44:53.776Z,53.43
2024-04-24T06:47:24.330Z,53.40
2024-04-24T06:49:54.848Z,53.14
2024-04-24T06:52:25.239Z,53.35
2024-04-24T06:54:55.617Z,52.97
2024-04-24T06:57:25.956Z,52.98
2024-04-24T06:59:59.149Z,53.04
2024-04-24T07:02:29.648Z,52.80
2024-04-24T07:05:00.151Z,53.10
2024-04-24T07:07:30.543Z,53.07
2024-04-24T07:10:00.970Z,52.96
2024-04-24T07:12:31.267Z,52.72
2024-04-24T07:15:04.849Z,52.78
2024-04-24T07:17:35.378Z,52.75
2024-04-24T07:20:05.891Z,52.81
2024-04-24T07:22:36.236Z,52.47
2024-04-24T07:25:06.731Z,52.42
2024-04-24T07:27:37.162Z,52.75
2024-04-24T07:30:12.106Z,52.76
2024-04-24T07:32:42.646Z,52.69
2024-04-24T07:35:13.116Z,52.73
2024-04-24T07:37:44.190Z,52.52
2024-04-24T07:40:15.104Z,52.69
2024-04-24T07:42:45.507Z,52.36
2024-04-24T07:45:18.748Z,52.39
2024-04-24T07:47:49.297Z,52.56
2024-04-24T07:50:19.831Z,52.39
2024-04-24T07:52:50.344Z,52.39
2024-04-24T07:55:20.718Z,52.47
2024-04-24T07:57:51.123Z,52.37
2024-04-24T08:00:26.745Z,52.56
2024-04-24T08:02:57.179Z,52.65
2024-04-24T08:05:27.717Z,52.27
2024-04-24T08:07:58.206Z,52.36
2024-04-24T08:10:28.566Z,52.35
2024-04-24T08:12:58.915Z,52.15
2024-04-24T08:15:32.064Z,52.45
2024-04-24T08:18:02.554Z,52.38
2024-04-24T08:20:33.069Z,52.50
2024-04-24T08:23:03.667Z,52.16
2024-04-24T08:25:34.087Z,52.48
2024-04-24T08:28:04.757Z,52.22
2024-04-24T08:30:37.849Z,52.43
2024-04-24T08:33:08.797Z,52.25
2024-04-24T08:35:39.488Z,52.28
2024-04-24T08:38:09.920Z,52.17
2024-04-24T08:40:40.455Z,52.17
2024-04-24T08:43:10.849Z,51.97
2024-04-24T08:45:43.828Z,52.05
2024-04-24T08:48:16.898Z,52.10
2024-04-24T08:50:47.895Z,51.87
2024-04-24T08:53:18.366Z,51.75
2024-04-24T08:55:48.756Z,51.99
2024-04-24T08:58:19.994Z,51.77
2024-04-24T09:00:53.514Z,51.71
2024-04-24T09:03:26.508Z,51.75
2024-04-24T09:05:58.582Z,51.68
2024-04-24T09:08:29.027Z,51.73
2024-04-24T09:10:59.607Z,51.25
2024-04-24T09:13:29.964Z,51.38
2024-04-24T09:16:03.801Z,50.97
2024-04-24T09:18:34.156Z,50.60
2024-04-24T09:21:05.060Z,50.65
2024-04-24T09:23:35.426Z,50.49
2024-04-24T09:26:05.877Z,50.14
2024-04-24T09:28:36.277Z,50.18
2024-04-24T09:31:10.441Z,50.22
2024-04-24T09:33:40.833Z,50.21
2024-04-24T09:36:11.973Z,50.20
2024-04-24T09:38:43.147Z,50.17
2024-04-24T09:41:13.910Z,50.17
2024-04-24T09:43:44.355Z,50.07
2024-04-24T09:46:19.486Z,50.07
2024-04-24T09:48:49.974Z,49.87
2024-04-24T09:53:52.408Z,49.56
2024-04-24T09:56:24.335Z,49.60
2024-04-24T09:58:55.494Z,49.44
2024-04-24T10:01:29.962Z,49.70
2024-04-24T10:04:00.289Z,49.90
2024-04-24T10:06:30.783Z,49.98
2024-04-24T10:09:02.362Z,50.28
2024-04-24T10:11:36.876Z,50.31
2024-04-24T10:14:08.774Z,49.91
2024-04-24T10:16:42.765Z,49.95
2024-04-24T10:19:13.259Z,49.99
2024-04-24T10:21:43.876Z,50.29
2024-04-24T10:24:11.555Z,50.53
2024-04-24T10:26:42.027Z,50.46
2024-04-24T10:29:12.403Z,50.56
2024-04-24T10:31:45.738Z,50.52
2024-04-24T10:34:16.092Z,50.12
2024-04-24T10:36:47.460Z,50.12
2024-04-24T10:39:18.575Z,49.96
2024-04-24T10:41:49.319Z,49.95
2024-04-24T10:44:19.984Z,49.74
2024-04-24T10:46:53.097Z,49.61
2024-04-24T10:49:23.500Z,48.91
2024-04-24T10:51:53.953Z,48.75
2024-04-24T10:54:24.677Z,49.13
2024-04-24T10:56:54.988Z,49.16
2024-04-24T10:59:33.352Z,49.34
2024-04-24T11:02:20.315Z,49.45
2024-04-24T11:04:51.798Z,49.72
2024-04-24T11:07:28.818Z,49.63
2024-04-24T11:10:08.232Z,49.50
2024-04-24T11:12:41.871Z,49.53
2024-04-24T11:15:22.342Z,49.34
2024-04-24T11:17:55.759Z,49.42
2024-04-24T11:20:28.146Z,49.36
2024-04-24T11:22:58.705Z,49.05
2024-04-24T11:25:31.855Z,49.03
2024-04-24T11:28:02.508Z,48.77
2024-04-24T11:30:34.393Z,48.71
2024-04-24T11:33:08.019Z,48.99
2024-04-24T11:35:38.530Z,49.18
2024-04-24T11:38:08.946Z,49.43
2024-04-24T11:40:39.315Z,49.43
2024-04-24T11:43:09.732Z,49.64
2024-04-24T11:45:41.022Z,49.52
2024-04-24T11:48:14.378Z,49.85
2024-04-24T11:50:44.854Z,49.90
2024-04-24T11:53:15.307Z,49.61
2024-04-24T11:55:45.736Z,49.75
2024-04-24T11:58:16.289Z,49.30
2024-04-24T12:00:48.354Z,49.52
2024-04-24T12:03:22.769Z,49.65
2024-04-24T12:05:54.140Z,49.55
2024-04-24T12:08:29.144Z,50.01
2024-04-24T12:11:01.024Z,49.57
2024-04-24T12:13:33.531Z,49.71
2024-04-24T12:16:04.566Z,49.56
2024-04-24T12:18:38.267Z,49.01
2024-04-24T12:21:08.961Z,48.73
2024-04-24T12:23:39.331Z,48.49
2024-04-24T12:26:09.692Z,48.68
2024-04-24T12:28:40.037Z,48.39
2024-04-24T12:31:10.436Z,48.51
2024-04-24T12:33:43.612Z,48.52
2024-04-24T12:36:15.479Z,48.13
2024-04-24T12:38:45.878Z,48.03
2024-04-24T12:41:16.226Z,48.03
2024-04-24T12:43:46.635Z,48.03
2024-04-24T12:46:17.087Z,47.83
2024-04-24T12:48:51.134Z,47.79
2024-04-24T12:51:21.499Z,48.01
2024-04-24T12:53:51.928Z,48.53
2024-04-24T12:56:22.361Z,48.89
2024-04-24T12:58:53.879Z,49.11
2024-04-24T13:01:24.402Z,49.31
2024-04-24T13:03:57.743Z,49.35
2024-04-24T13:06:28.232Z,49.09
2024-04-24T13:09:01.142Z,49.31
2024-04-24T13:11:31.607Z,49.36
2024-04-24T13:14:02.208Z,49.35
2024-04-24T13:16:32.622Z,49.24
2024-04-24T13:19:05.762Z,49.37
2024-04-24T13:21:36.268Z,49.67
2024-04-24T13:24:04.333Z,49.56
2024-04-24T13:26:34.835Z,49.79
2024-04-24T13:29:05.362Z,49.74
2024-04-24T13:31:35.840Z,49.64
2024-04-24T13:34:09.135Z,49.72
2024-04-24T13:36:39.856Z,49.74
2024-04-24T13:39:10.718Z,49.73
2024-04-24T13:41:42.445Z,49.69
2024-04-24T13:44:15.847Z,49.76
2024-04-24T13:46:46.984Z,49.63
2024-04-24T13:49:20.169Z,49.81
2024-04-24T13:51:50.605Z,50.30
2024-04-24T13:54:20.939Z,50.61
2024-04-24T13:56:51.456Z,50.54
2024-04-24T13:59:21.987Z,50.69
2024-04-24T14:01:55.375Z,50.69
2024-04-24T14:04:28.544Z,50.93
2024-04-24T14:06:58.910Z,50.88
2024-04-24T14:09:29.920Z,51.23
2024-04-24T14:12:00.331Z,51.08
2024-04-24T14:14:31.252Z,51.09
2024-04-24T14:17:01.730Z,51.30
2024-04-24T14:19:34.884Z,51.32
2024-04-24T14:22:05.504Z,51.34
2024-04-24T14:24:35.857Z,51.30
2024-04-24T14:27:06.276Z,51.31
2024-04-24T14:29:36.671Z,51.25
2024-04-24T14:32:07.291Z,51.38
2024-04-24T14:34:43.133Z,51.11
2024-04-24T14:37:13.572Z,50.36
2024-04-24T14:39:44.089Z,50.47
2024-04-24T14:42:14.508Z,49.23
2024-04-24T14:44:46.797Z,46.39
2024-04-24T14:47:17.478Z,43.82
2024-04-24T14:49:50.607Z,44.36
2024-04-24T14:52:21.579Z,43.79
2024-04-24T14:54:51.938Z,45.02
2024-04-24T14:57:22.279Z,45.22
2024-04-24T14:59:52.751Z,45.25
2024-04-24T15:02:23.147Z,45.99
2024-04-24T15:04:56.209Z,44.87
2024-04-24T15:07:26.551Z,44.99
2024-04-24T15:09:57.550Z,44.73
2024-04-24T15:12:25.294Z,45.07
2024-04-24T15:14:55.759Z,44.04
2024-04-24T15:17:26.201Z,44.16
2024-04-24T15:20:00.158Z,42.41
2024-04-24T15:22:30.687Z,43.07
2024-04-24T15:25:01.010Z,44.22
2024-04-24T15:27:32.707Z,44.61
2024-04-24T15:30:03.082Z,45.38
2024-04-24T15:32:33.594Z,46.06
2024-04-24T15:35:08.340Z,46.63
2024-04-24T15:37:38.839Z,46.88
2024-04-24T15:40:10.135Z,47.41
2024-04-24T15:42:40.527Z,47.39
2024-04-24T15:45:11.366Z,47.74
2024-04-24T15:47:41.828Z,47.78
2024-04-24T15:50:15.000Z,48.13
2024-04-24T15:52:45.332Z,47.85
2024-04-24T15:55:15.735Z,48.43
2024-04-24T15:57:46.205Z,48.29
2024-04-24T16:00:17.446Z,48.25
2024-04-24T16:02:49.823Z,48.50
2024-04-24T16:05:26.313Z,48.92
2024-04-24T16:07:56.741Z,49.08
2024-04-24T16:10:27.068Z,49.00
2024-04-24T16:12:55.348Z,49.03
2024-04-24T16:15:25.789Z,49.07
2024-04-24T16:17:56.896Z,49.19
2024-04-24T16:20:30.258Z,49.13
2024-04-24T16:23:00.817Z,49.41
2024-04-24T16:25:33.438Z,49.57
2024-04-24T16:28:04.013Z,49.48
2024-04-24T16:30:34.331Z,49.51
2024-04-24T16:33:04.905Z,49.59
2024-04-24T16:35:38.039Z,49.83
2024-04-24T16:38:08.839Z,49.74
2024-04-24T16:40:40.651Z,50.07
2024-04-24T16:43:11.875Z,49.94
2024-04-24T16:45:42.218Z,49.95
2024-04-24T16:48:14.115Z,50.09
2024-04-24T16:50:47.527Z,49.88
2024-04-24T16:53:17.914Z,50.16
2024-04-24T16:55:50.313Z,49.94
2024-04-24T16:58:21.177Z,50.15
2024-04-24T17:00:51.569Z,50.53
2024-04-24T17:03:21.938Z,50.42
2024-04-24T17:05:55.450Z,50.43
2024-04-24T17:08:26.071Z,50.51
2024-04-24T17:10:57.262Z,50.45
2024-04-24T17:13:27.749Z,50.61
2024-04-24T17:15:58.150Z,50.55
2024-04-24T17:18:28.630Z,50.60
2024-04-24T17:21:03.482Z,50.66
2024-04-24T17:23:31.216Z,50.80
2024-04-24T17:26:02.417Z,50.69
2024-04-24T17:28:35.707Z,50.74
2024-04-24T17:31:06.123Z,50.67
2024-04-24T17:33:36.519Z,50.66
2024-04-24T17:36:12.556Z,50.86
2024-04-24T17:38:42.863Z,50.65
2024-04-24T17:41:13.400Z,50.75
2024-04-24T17:43:43.858Z,51.14
2024-04-24T17:46:14.591Z,51.32
2024-04-24T17:48:45.158Z,51.09
2024-04-24T17:51:18.274Z,51.44
2024-04-24T17:53:48.614Z,51.58
2024-04-24T17:56:19.290Z,51.46
2024-04-24T17:58:49.693Z,51.74
2024-04-24T18:01:20.436Z,51.37
2024-04-24T18:03:50.832Z,51.31
2024-04-24T18:06:23.959Z,51.11
2024-04-24T18:08:54.346Z,51.09
2024-04-24T18:11:25.245Z,51.10
2024-04-24T18:13:55.701Z,51.06
2024-04-24T18:16:26.069Z,51.48
2024-04-24T18:18:54.517Z,51.53
2024-04-24T18:21:30.116Z,51.90
2024-04-24T18:24:00.483Z,51.72
2024-04-24T18:26:30.962Z,51.64
2024-04-24T18:29:02.531Z,51.93
2024-04-24T18:31:33.672Z,51.21
2024-04-24T18:34:04.183Z,51.52
2024-04-24T18:36:37.432Z,51.33
2024-04-24T18:39:08.193Z,51.49
2024-04-24T18:41:38.783Z,51.61
2024-04-24T18:44:09.755Z,51.59
2024-04-24T18:46:40.139Z,51.48
2024-04-24T18:49:10.518Z,51.57
2024-04-24T18:51:43.771Z,51.42
2024-04-24T18:54:16.328Z,51.51
2024-04-24T18:56:46.845Z,51.87
2024-04-24T18:59:17.242Z,52.20
2024-04-24T19:01:47.683Z,51.95
2024-04-24T19:04:18.217Z,52.42
2024-04-24T19:06:51.259Z,52.27
2024-04-24T19:09:19.055Z,52.47
2024-04-24T19:11:49.584Z,52.21
2024-04-24T19:14:20.112Z,52.04
2024-04-24T19:16:51.593Z,52.00
2024-04-24T19:19:22.239Z,52.04
2024-04-24T19:21:55.245Z,52.35
2024-04-24T19:24:25.647Z,52.28
2024-04-24T19:26:56.035Z,52.06
2024-04-24T19:29:26.481Z,52.28
2024-04-24T19:31:56.934Z,52.43
2024-04-24T19:34:27.315Z,52.37
2024-04-24T19:37:00.440Z,52.65
2024-04-24T19:39:30.779Z,52.44
2024-04-24T19:42:01.144Z,52.39
2024-04-24T19:44:31.485Z,52.53
2024-04-24T19:47:02.753Z,52.76
2024-04-24T19:49:33.199Z,52.26
2024-04-24T19:52:06.202Z,52.55
2024-04-24T19:54:38.426Z,52.47
2024-04-24T19:57:09.062Z,52.73
2024-04-24T19:59:39.518Z,52.51
2024-04-24T20:02:10.269Z,52.66
2024-04-24T20:04:40.740Z,52.42
2024-04-24T20:07:14.721Z,52.53
2024-04-24T20:09:46.240Z,52.41
2024-04-24T20:12:16.702Z,52.48
2024-04-24T20:14:47.200Z,52.41
2024-04-24T20:17:17.687Z,52.44
2024-04-24T20:19:48.190Z,52.64
2024-04-24T20:22:21.208Z,52.59
2024-04-24T20:24:51.635Z,52.67
2024-04-24T20:27:22.033Z,52.56
2024-04-24T20:29:53.098Z,52.84
2024-04-24T20:32:26.821Z,52.59
2024-04-24T20:34:57.429Z,52.74
2024-04-24T20:37:30.445Z,52.89
2024-04-24T20:40:00.906Z,52.72
2024-04-24T20:42:31.256Z,52.87
2024-04-24T20:45:03.543Z,52.55
2024-04-24T20:47:34.156Z,52.97
2024-04-24T20:50:05.373Z,52.74
2024-04-24T20:52:38.430Z,53.07
2024-04-24T20:55:09.777Z,52.76
2024-04-24T20:57:40.118Z,52.88
2024-04-24T21:00:12.913Z,53.07
2024-04-24T21:02:43.329Z,53.10
2024-04-24T21:05:13.835Z,53.45
2024-04-24T21:07:46.849Z,53.46
2024-04-24T21:10:17.218Z,53.50
2024-04-24T21:12:47.552Z,53.43
2024-04-24T21:15:18.049Z,53.69
2024-04-24T21:17:48.487Z,53.49
2024-04-24T21:20:19.037Z,53.79
2024-04-24T21:22:52.096Z,53.87
2024-04-24T21:25:22.432Z,53.51
2024-04-24T21:27:52.760Z,53.84
2024-04-24T21:30:23.034Z,53.88
2024-04-24T21:32:53.537Z,53.98
2024-04-24T21:35:23.970Z,54.31
2024-04-24T21:37:57.127Z,54.45
2024-04-24T21:40:27.557Z,54.59
2024-04-24T21:42:58.777Z,54.40
2024-04-24T21:45:30.278Z,54.59
2024-04-24T21:48:00.664Z,54.54
2024-04-24T21:50:31.082Z,54.68
2024-04-24T21:53:05.737Z,55.24
2024-04-24T21:55:36.171Z,55.34
2024-04-24T21:58:06.541Z,55.50
2024-04-24T22:00:36.967Z,55.69
2024-04-24T22:03:07.922Z,55.79
2024-04-24T22:05:38.373Z,55.56
2024-04-24T22:08:11.808Z,56.07
2024-04-24T22:10:42.172Z,55.95
2024-04-24T22:13:12.518Z,55.59
2024-04-24T22:15:42.865Z,55.77
2024-04-24T22:18:14.333Z,55.82
2024-04-24T22:20:44.699Z,55.71
2024-04-24T22:23:17.968Z,55.85
2024-04-24T22:25:48.327Z,55.46
2024-04-24T22:28:18.662Z,55.25
2024-04-24T22:30:49.025Z,55.71
2024-04-24T22:33:20.689Z,55.76
2024-04-24T22:35:51.410Z,55.53
2024-04-24T22:38:24.484Z,55.65
2024-04-24T22:40:55.557Z,55.70
2024-04-24T22:43:25.887Z,56.01
2024-04-24T22:45:56.249Z,56.12
2024-04-24T22:48:26.613Z,55.78
2024-04-24T22:50:57.025Z,55.99
2024-04-24T22:53:30.125Z,55.72
2024-04-24T22:55:57.885Z,55.32
2024-04-24T22:58:28.254Z,55.14
2024-04-24T23:00:58.809Z,54.79
2024-04-24T23:03:29.142Z,55.11
2024-04-24T23:05:59.671Z,54.80
2024-04-24T23:08:32.839Z,54.74
2024-04-24T23:11:03.375Z,55.08
2024-04-24T23:13:33.924Z,55.02
2024-04-24T23:16:04.417Z,54.89
2024-04-24T23:18:38.568Z,54.51
2024-04-24T23:21:09.277Z,54.35
2024-04-24T23:23:42.959Z,54.53
2024-04-24T23:26:13.337Z,54.79
2024-04-24T23:28:43.720Z,54.28
2024-04-24T23:31:17.167Z,54.63
2024-04-24T23:33:47.877Z,54.63
2024-04-24T23:36:18.211Z,54.86
2024-04-24T23:38:51.319Z,54.44
2024-04-24T23:41:21.711Z,54.50
2024-04-24T23:43:50.070Z,54.30
2024-04-24T23:46:21.601Z,54.64
2024-04-24T23:48:52.526Z,54.70
2024-04-24T23:51:22.857Z,54.72
2024-04-24T23:53:55.867Z,54.43
2024-04-24T23:56:27.433Z,54.86
2024-04-24T23:58:57.899Z,54.78
